Time;durP1;ratioP1;P1;durP2;ratioP2;P2;SDS_P1;SDS_P2;PMS_P1;PMS_P2;Temp;Humidity;BMP_temperature;BMP_pressure;BME280_temperature;BME280_humidity;BME280_pressure;Samples;Min_cycle;Max_cycle;Signal;HPM_P1;HPM_P2
2021/09/10 00:02:18;;;;;;;11.23;10.23;;;18.90;99.90;;;;;;4980065;28;20240;-68
2021/09/10 00:04:46;;;;;;;11.90;10.40;;;18.80;99.90;;;;;;4986490;28;20253;-68
2021/09/10 00:07:14;;;;;;;12.07;10.33;;;18.80;99.90;;;;;;4997422;28;20295;-69
2021/09/10 00:09:42;;;;;;;12.73;10.07;;;18.80;99.90;;;;;;4991778;28;20256;-68
2021/09/10 00:12:11;;;;;;;12.77;10.40;;;18.80;99.90;;;;;;4993335;28;20238;-68
2021/09/10 00:14:39;;;;;;;12.53;9.27;;;18.80;99.90;;;;;;4993683;28;20622;-68
2021/09/10 00:17:08;;;;;;;12.03;10.83;;;18.80;99.90;;;;;;4993494;28;20336;-69
2021/09/10 00:19:36;;;;;;;13.00;10.17;;;18.80;99.90;;;;;;4987472;28;20818;-67
2021/09/10 00:22:05;;;;;;;11.80;10.53;;;18.80;99.90;;;;;;4987598;28;20568;-69
2021/09/10 00:24:33;;;;;;;13.20;10.57;;;18.80;99.90;;;;;;4987575;28;20240;-69
2021/09/10 00:27:04;;;;;;;11.80;10.43;;;18.80;99.90;;;;;;4989667;28;20251;-69
2021/09/10 00:29:32;;;;;;;11.43;10.33;;;19.00;99.90;;;;;;4991244;28;20282;-68
2021/09/10 00:32:00;;;;;;;12.37;11.17;;;19.00;99.90;;;;;;4988735;28;20326;-69
2021/09/10 00:34:30;;;;;;;13.87;12.47;;;19.00;99.90;;;;;;4992991;28;20242;-68
2021/09/10 00:36:58;;;;;;;15.00;13.40;;;18.90;99.90;;;;;;4996719;28;20320;-67
2021/09/10 00:39:26;;;;;;;13.47;12.17;;;19.00;99.90;;;;;;4990438;28;21324;-68
2021/09/10 00:41:54;;;;;;;16.80;15.10;;;19.10;99.90;;;;;;4995727;28;20240;-67
2021/09/10 00:44:22;;;;;;;19.00;14.97;;;19.10;99.90;;;;;;4989311;28;20241;-68
2021/09/10 00:46:51;;;;;;;16.37;14.57;;;19.20;99.90;;;;;;4998815;28;20336;-67
2021/09/10 00:49:19;;;;;;;17.73;15.83;;;19.20;99.90;;;;;;4986962;28;20279;-67
2021/09/10 00:51:49;;;;;;;18.70;16.77;;;19.20;99.90;;;;;;4995999;28;20253;-67
2021/09/10 00:54:17;;;;;;;16.80;15.07;;;19.30;99.90;;;;;;4985892;28;20237;-68
2021/09/10 00:56:45;;;;;;;16.80;15.23;;;19.30;99.90;;;;;;4996611;28;20315;-68
2021/09/10 00:59:13;;;;;;;17.07;15.37;;;19.30;99.90;;;;;;4990837;28;20719;-69
2021/09/10 01:01:43;;;;;;;17.83;16.23;;;19.20;99.90;;;;;;4992221;28;20249;-68
2021/09/10 01:04:12;;;;;;;17.17;15.47;;;19.20;99.90;;;;;;4993957;28;20279;-68
2021/09/10 01:06:41;;;;;;;18.43;15.67;;;19.30;99.90;;;;;;4996997;28;20264;-68
2021/09/10 01:09:11;;;;;;;18.43;16.53;;;19.30;99.90;;;;;;4990684;28;20256;-69
2021/09/10 01:11:39;;;;;;;17.97;16.30;;;19.20;99.90;;;;;;4989147;28;20240;-69
2021/09/10 01:14:08;;;;;;;17.33;15.73;;;19.10;99.90;;;;;;4992980;28;20244;-69
2021/09/10 01:16:36;;;;;;;17.30;15.73;;;19.00;99.90;;;;;;4992571;28;20329;-69
2021/09/10 01:19:06;;;;;;;18.53;16.73;;;18.90;99.90;;;;;;4996367;28;20327;-68
2021/09/10 01:21:34;;;;;;;19.00;17.20;;;19.00;99.90;;;;;;4997875;28;20249;-69
2021/09/10 01:24:03;;;;;;;20.03;17.33;;;19.00;99.90;;;;;;4993192;28;20714;-69
2021/09/10 01:26:32;;;;;;;19.93;17.90;;;19.10;99.90;;;;;;4991077;28;20768;-68
2021/09/10 01:29:01;;;;;;;21.10;17.90;;;19.20;99.90;;;;;;4993777;28;20319;-69
2021/09/10 01:31:29;;;;;;;18.83;17.03;;;19.10;99.90;;;;;;4999495;28;20248;-69
2021/09/10 01:33:57;;;;;;;19.27;17.40;;;19.10;99.90;;;;;;5000403;28;20279;-69
2021/09/10 01:36:25;;;;;;;19.97;17.97;;;19.20;99.90;;;;;;4993991;28;20240;-69
2021/09/10 01:38:53;;;;;;;20.97;17.90;;;19.10;99.90;;;;;;4997307;28;20737;-68
2021/09/10 01:41:21;;;;;;;20.33;18.43;;;19.20;99.90;;;;;;4997758;28;20519;-68
2021/09/10 01:43:51;;;;;;;21.47;19.17;;;19.10;99.90;;;;;;4994258;28;20248;-68
2021/09/10 01:46:19;;;;;;;20.03;18.03;;;19.20;99.90;;;;;;4987495;28;20270;-68
2021/09/10 01:48:49;;;;;;;19.20;17.23;;;19.10;99.90;;;;;;4993422;28;20609;-68
2021/09/10 01:51:17;;;;;;;21.07;18.97;;;19.10;99.90;;;;;;4991838;28;20252;-69
2021/09/10 01:53:47;;;;;;;19.33;17.43;;;19.10;99.90;;;;;;4992886;28;20244;-69
2021/09/10 01:56:15;;;;;;;21.33;19.13;;;19.20;99.90;;;;;;5002719;28;20327;-69
2021/09/10 01:58:43;;;;;;;21.37;19.30;;;19.20;99.90;;;;;;4998932;28;20241;-68
2021/09/10 02:01:12;;;;;;;18.97;17.07;;;19.20;99.90;;;;;;4990972;28;20605;-69
2021/09/10 02:03:41;;;;;;;19.77;17.87;;;19.20;99.90;;;;;;4994135;28;20267;-69
2021/09/10 02:06:09;;;;;;;22.30;20.00;;;19.30;99.90;;;;;;4990442;28;20233;-68
2021/09/10 02:08:37;;;;;;;22.57;20.27;;;19.30;99.90;;;;;;4999548;28;20267;-69
2021/09/10 02:11:05;;;;;;;20.93;18.83;;;19.40;99.90;;;;;;4993759;28;20261;-69
2021/09/10 02:13:34;;;;;;;21.73;19.43;;;19.30;99.90;;;;;;4995781;28;20249;-68
2021/09/10 02:16:03;;;;;;;21.40;19.30;;;19.20;99.90;;;;;;4989426;28;20264;-68
2021/09/10 02:18:33;;;;;;;24.77;21.43;;;19.20;99.90;;;;;;4995497;28;20249;-69
2021/09/10 02:21:02;;;;;;;26.93;24.20;;;19.10;99.90;;;;;;4995445;28;20244;-69
2021/09/10 02:23:31;;;;;;;22.57;20.17;;;19.10;99.90;;;;;;4991107;28;20250;-68
2021/09/10 02:26:00;;;;;;;25.00;22.60;;;19.10;99.90;;;;;;4990928;28;20239;-67
2021/09/10 02:28:28;;;;;;;24.93;22.53;;;19.10;99.90;;;;;;4991390;28;20283;-69
2021/09/10 02:30:56;;;;;;;26.20;23.57;;;19.10;99.90;;;;;;4992759;28;20322;-68
2021/09/10 02:33:25;;;;;;;25.47;22.87;;;19.10;99.90;;;;;;4987903;28;20339;-68
2021/09/10 02:35:54;;;;;;;25.50;22.90;;;19.10;99.90;;;;;;4988291;28;20245;-68
2021/09/10 02:38:22;;;;;;;26.77;24.03;;;19.10;99.90;;;;;;4991454;28;20271;-69
2021/09/10 02:40:50;;;;;;;27.63;24.73;;;19.10;99.90;;;;;;4992210;28;20335;-69
2021/09/10 02:43:19;;;;;;;27.20;24.30;;;19.00;99.90;;;;;;4990619;28;20245;-69
2021/09/10 02:45:47;;;;;;;29.10;26.03;;;19.00;99.90;;;;;;4991751;28;20242;-68
2021/09/10 02:48:16;;;;;;;28.67;25.67;;;19.00;99.90;;;;;;4991897;28;20320;-68
2021/09/10 02:50:44;;;;;;;27.93;25.03;;;19.00;99.90;;;;;;4993249;28;20327;-68
2021/09/10 02:53:13;;;;;;;29.43;25.97;;;18.90;99.90;;;;;;4988285;28;20236;-68
2021/09/10 02:55:42;;;;;;;35.37;26.53;;;18.90;99.90;;;;;;4990209;28;20248;-69
2021/09/10 02:58:10;;;;;;;30.83;25.50;;;18.90;99.90;;;;;;4993391;28;20315;-68
2021/09/10 03:00:38;;;;;;;27.57;24.80;;;18.90;99.90;;;;;;4985550;28;20248;-68
2021/09/10 03:03:07;;;;;;;26.80;23.73;;;18.90;99.90;;;;;;4986334;28;20255;-68
2021/09/10 03:05:36;;;;;;;28.57;25.57;;;19.00;99.90;;;;;;4990893;28;20255;-69
2021/09/10 03:08:05;;;;;;;30.20;27.10;;;18.90;99.90;;;;;;4991664;28;20248;-68
2021/09/10 03:10:34;;;;;;;33.73;30.13;;;18.90;99.90;;;;;;4993615;28;20239;-69
2021/09/10 03:13:02;;;;;;;32.03;27.70;;;18.90;99.90;;;;;;4992896;28;20270;-69
2021/09/10 03:15:30;;;;;;;30.83;27.53;;;18.90;99.90;;;;;;4987411;28;20705;-68
2021/09/10 03:17:58;;;;;;;29.70;26.70;;;18.80;99.90;;;;;;4992868;28;20246;-69
2021/09/10 03:20:27;;;;;;;28.77;25.73;;;18.90;99.90;;;;;;4990436;28;20754;-69
2021/09/10 03:22:55;;;;;;;34.37;30.80;;;19.00;99.90;;;;;;4987843;28;20728;-68
2021/09/10 03:25:23;;;;;;;32.80;27.23;;;18.90;99.90;;;;;;4988620;28;20898;-68
2021/09/10 03:27:53;;;;;;;32.47;28.90;;;18.90;99.90;;;;;;4991361;28;20715;-69
2021/09/10 03:30:21;;;;;;;31.97;28.73;;;19.00;99.90;;;;;;4984673;28;20287;-68
2021/09/10 03:32:50;;;;;;;32.60;29.07;;;18.90;99.90;;;;;;4992933;28;20249;-69
2021/09/10 03:35:18;;;;;;;35.70;30.10;;;18.90;99.90;;;;;;4994785;28;20361;-69
2021/09/10 03:37:47;;;;;;;35.37;31.57;;;18.90;99.90;;;;;;4996153;28;20727;-69
2021/09/10 03:40:16;;;;;;;36.30;32.43;;;18.90;99.90;;;;;;4993515;28;20271;-68
2021/09/10 03:42:44;;;;;;;34.43;30.67;;;18.90;99.90;;;;;;4986577;28;20739;-69
2021/09/10 03:45:13;;;;;;;35.03;31.07;;;18.90;99.90;;;;;;4990717;28;20782;-69
2021/09/10 03:47:41;;;;;;;35.20;31.40;;;18.90;99.90;;;;;;4987421;28;20244;-68
2021/09/10 03:50:10;;;;;;;35.43;31.70;;;18.80;99.90;;;;;;4988456;28;20708;-68
2021/09/10 03:52:38;;;;;;;34.50;30.43;;;18.80;99.90;;;;;;4994692;28;20236;-69
2021/09/10 03:55:08;;;;;;;34.30;30.63;;;18.80;99.90;;;;;;4991082;28;20697;-69
2021/09/10 03:57:36;;;;;;;37.07;31.30;;;18.80;99.90;;;;;;4990405;28;20251;-68
2021/09/10 04:00:08;;;;;;;36.77;32.97;;;18.80;99.90;;;;;;4996687;28;20583;-69
2021/09/10 04:02:41;;;;;;;37.93;33.87;;;18.80;99.90;;;;;;4998663;28;20361;-68
2021/09/10 04:05:10;;;;;;;36.83;32.97;;;18.80;99.90;;;;;;4987262;28;20323;-70
2021/09/10 04:07:40;;;;;;;38.20;34.10;;;18.80;99.90;;;;;;4989241;28;20243;-69
2021/09/10 04:10:09;;;;;;;37.43;32.63;;;18.80;99.90;;;;;;4987506;28;20256;-69
2021/09/10 04:12:37;;;;;;;34.30;30.60;;;18.70;99.90;;;;;;4994879;28;20298;-68
2021/09/10 04:15:06;;;;;;;40.93;36.60;;;18.80;99.90;;;;;;4993778;28;20239;-69
2021/09/10 04:17:35;;;;;;;36.10;32.27;;;18.80;99.90;;;;;;4992326;28;20243;-69
2021/09/10 04:20:05;;;;;;;38.27;34.07;;;18.90;99.90;;;;;;4991522;28;20300;-69
2021/09/10 04:22:33;;;;;;;38.23;33.27;;;18.80;99.90;;;;;;4982004;28;20255;-69
2021/09/10 04:25:01;;;;;;;38.33;32.63;;;18.80;99.90;;;;;;4990089;28;20298;-69
2021/09/10 04:27:29;;;;;;;41.00;36.60;;;18.80;99.90;;;;;;4993595;28;20258;-70
2021/09/10 04:29:58;;;;;;;38.47;33.60;;;18.80;99.90;;;;;;4994586;28;20264;-70
2021/09/10 04:32:26;;;;;;;37.67;32.30;;;18.80;99.90;;;;;;4988383;28;20260;-69
2021/09/10 04:34:54;;;;;;;37.33;33.40;;;18.80;99.90;;;;;;4988149;28;20658;-70
2021/09/10 04:37:24;;;;;;;38.63;33.67;;;18.80;99.90;;;;;;4984096;28;20339;-70
2021/09/10 04:39:52;;;;;;;36.90;32.30;;;18.70;99.90;;;;;;4988139;28;20341;-67
2021/09/10 04:42:20;;;;;;;36.47;32.53;;;18.80;99.90;;;;;;4986928;28;20240;-67
2021/09/10 04:44:48;;;;;;;38.13;34.10;;;18.80;99.90;;;;;;4985268;28;20264;-70
2021/09/10 04:47:16;;;;;;;38.77;33.40;;;18.70;99.90;;;;;;4982895;28;20422;-68
2021/09/10 04:49:44;;;;;;;37.63;33.53;;;18.70;99.90;;;;;;4985381;28;20255;-69
2021/09/10 04:52:12;;;;;;;36.67;32.40;;;18.70;99.90;;;;;;4988607;28;20238;-70
2021/09/10 04:54:42;;;;;;;38.40;32.77;;;18.70;99.90;;;;;;4989283;28;20244;-69
2021/09/10 04:57:10;;;;;;;38.00;32.67;;;18.70;99.90;;;;;;4981398;28;20552;-70
2021/09/10 04:59:38;;;;;;;37.47;33.37;;;18.70;99.90;;;;;;4980231;28;20243;-69
2021/09/10 05:02:06;;;;;;;37.10;33.10;;;18.60;99.90;;;;;;4987869;28;20229;-70
2021/09/10 05:04:35;;;;;;;35.70;31.80;;;18.70;99.90;;;;;;4984201;28;20249;-69
2021/09/10 05:07:03;;;;;;;37.67;33.57;;;18.60;99.90;;;;;;4985195;28;20642;-69
2021/09/10 05:09:36;;;;;;;37.03;32.90;;;18.70;99.90;;;;;;4988661;28;20271;-70
2021/09/10 05:12:06;;;;;;;37.33;33.30;;;18.60;99.90;;;;;;4982340;28;20611;-70
2021/09/10 05:14:34;;;;;;;39.73;32.90;;;18.70;99.90;;;;;;4981463;28;20318;-70
2021/09/10 05:17:03;;;;;;;42.87;36.00;;;18.70;99.90;;;;;;4984864;28;20665;-70
2021/09/10 05:19:31;;;;;;;41.10;34.13;;;18.70;99.90;;;;;;4985088;28;20732;-70
2021/09/10 05:21:59;;;;;;;41.27;34.53;;;18.70;99.90;;;;;;4977963;28;20237;-69
2021/09/10 05:24:27;;;;;;;38.03;33.60;;;18.70;99.90;;;;;;4982055;28;20252;-70
2021/09/10 05:26:55;;;;;;;35.03;31.23;;;18.70;99.90;;;;;;4980455;28;20291;-70
2021/09/10 05:29:24;;;;;;;38.43;32.87;;;18.70;99.90;;;;;;4984671;28;20685;-70
2021/09/10 05:31:53;;;;;;;37.10;33.10;;;18.70;99.90;;;;;;4996829;28;20594;-70
2021/09/10 05:34:21;;;;;;;37.17;33.20;;;18.70;99.90;;;;;;4983820;28;20324;-70
2021/09/10 05:36:49;;;;;;;38.07;33.93;;;18.60;99.90;;;;;;4981627;28;20240;-69
2021/09/10 05:39:17;;;;;;;38.30;33.57;;;18.60;99.90;;;;;;4980748;28;20269;-70
2021/09/10 05:41:45;;;;;;;36.83;32.90;;;18.70;99.90;;;;;;4983412;28;20285;-70
2021/09/10 05:44:14;;;;;;;39.77;35.43;;;18.70;99.90;;;;;;4990531;28;20251;-69
2021/09/10 05:46:43;;;;;;;38.40;34.10;;;18.80;99.90;;;;;;4991580;28;20331;-70
2021/09/10 05:49:11;;;;;;;42.53;36.43;;;18.70;99.90;;;;;;4990185;28;20248;-69
2021/09/10 05:51:42;;;;;;;40.23;36.00;;;18.70;99.90;;;;;;4987003;28;20276;-70
2021/09/10 05:54:10;;;;;;;29.37;26.27;;;18.70;99.90;;;;;;4992053;28;20240;-70
2021/09/10 05:56:39;;;;;;;38.87;31.83;;;19.00;99.90;;;;;;4995492;28;20728;-70
2021/09/10 05:59:07;;;;;;;35.67;31.83;;;19.30;99.90;;;;;;4992528;28;20251;-69
2021/09/10 06:01:35;;;;;;;36.60;31.80;;;19.30;99.90;;;;;;4990425;28;20343;-69
2021/09/10 06:04:05;;;;;;;35.37;31.63;;;19.20;99.90;;;;;;4985519;28;20316;-68
2021/09/10 06:06:34;;;;;;;43.53;37.83;;;19.20;99.90;;;;;;4985481;28;20254;-68
2021/09/10 06:09:02;;;;;;;41.33;36.23;;;19.20;99.90;;;;;;4987565;28;20241;-68
2021/09/10 06:11:30;;;;;;;45.43;39.77;;;19.00;99.90;;;;;;4981055;28;20257;-68
2021/09/10 06:13:59;;;;;;;44.47;39.67;;;18.90;99.90;;;;;;4978268;28;20652;-68
2021/09/10 06:16:27;;;;;;;42.87;38.30;;;18.80;99.90;;;;;;4978133;28;20248;-69
2021/09/10 06:18:55;;;;;;;43.23;38.67;;;18.80;99.90;;;;;;4977027;28;20295;-67
2021/09/10 06:21:25;;;;;;;46.20;40.60;;;18.70;99.90;;;;;;4975662;28;20258;-67
2021/09/10 06:23:54;;;;;;;45.90;41.00;;;18.70;99.90;;;;;;4979630;28;20240;-68
2021/09/10 06:26:24;;;;;;;45.37;39.43;;;18.60;99.90;;;;;;4975876;28;20340;-68
2021/09/10 06:28:52;;;;;;;44.03;39.23;;;18.60;99.90;;;;;;4976750;28;20247;-68
2021/09/10 06:31:20;;;;;;;41.67;37.17;;;18.60;99.90;;;;;;4975798;28;20295;-68
2021/09/10 06:33:48;;;;;;;43.90;38.93;;;18.60;99.90;;;;;;4976358;28;20251;-68
2021/09/10 06:36:16;;;;;;;42.17;37.67;;;18.60;99.90;;;;;;4975755;28;20265;-68
2021/09/10 06:38:50;;;;;;;41.83;37.23;;;18.50;99.90;;;;;;4975900;28;20350;-68
2021/09/10 06:41:18;;;;;;;41.23;36.87;;;18.50;99.90;;;;;;4984487;28;20245;-68
2021/09/10 06:43:46;;;;;;;37.07;33.03;;;18.60;99.90;;;;;;4985815;28;20307;-68
2021/09/10 06:46:14;;;;;;;38.90;34.83;;;18.60;99.90;;;;;;4984258;28;20235;-68
2021/09/10 06:48:43;;;;;;;42.40;37.47;;;18.50;99.90;;;;;;4982943;28;20252;-68
2021/09/10 06:51:11;;;;;;;43.93;37.50;;;18.50;99.90;;;;;;4977707;28;20498;-67
2021/09/10 06:53:39;;;;;;;41.67;35.03;;;18.50;99.90;;;;;;4977160;28;20264;-68
2021/09/10 06:56:08;;;;;;;41.13;36.43;;;18.50;99.90;;;;;;4983660;28;20242;-68
2021/09/10 06:58:37;;;;;;;39.67;35.33;;;18.60;99.90;;;;;;4980527;28;20751;-67
2021/09/10 07:01:06;;;;;;;37.73;33.23;;;18.60;99.90;;;;;;4984263;28;20743;-68
2021/09/10 07:03:34;;;;;;;36.40;32.50;;;18.60;99.90;;;;;;4984241;28;20655;-68
2021/09/10 07:06:04;;;;;;;39.97;35.67;;;18.60;99.90;;;;;;4984232;28;20244;-68
2021/09/10 07:08:32;;;;;;;38.13;34.13;;;18.50;99.90;;;;;;4984115;28;20258;-68
2021/09/10 07:11:01;;;;;;;37.13;33.33;;;18.60;99.90;;;;;;4983672;28;20267;-68
2021/09/10 07:13:31;;;;;;;37.33;33.43;;;18.60;99.90;;;;;;4984812;28;20596;-68
2021/09/10 07:16:00;;;;;;;36.67;32.77;;;18.60;99.90;;;;;;4979942;28;20246;-68
2021/09/10 07:18:28;;;;;;;45.10;39.73;;;18.60;99.90;;;;;;4978248;28;20254;-68
2021/09/10 07:20:56;;;;;;;37.93;33.83;;;18.60;99.90;;;;;;4978876;28;20352;-68
2021/09/10 07:23:24;;;;;;;39.57;34.87;;;18.60;99.90;;;;;;4989058;28;20240;-68
2021/09/10 07:25:53;;;;;;;39.73;35.43;;;18.70;99.90;;;;;;4987815;28;20462;-67
2021/09/10 07:28:21;;;;;;;37.37;33.23;;;18.70;99.90;;;;;;4991014;28;20654;-68
2021/09/10 07:30:51;;;;;;;36.70;32.33;;;18.70;99.90;;;;;;4991953;28;20243;-68
2021/09/10 07:33:20;;;;;;;36.07;32.23;;;18.70;99.90;;;;;;4987301;28;20241;-68
2021/09/10 07:35:49;;;;;;;35.00;30.97;;;18.70;99.90;;;;;;4989060;28;20397;-68
2021/09/10 07:38:17;;;;;;;32.83;27.80;;;18.60;99.90;;;;;;4987809;28;20243;-68
2021/09/10 07:40:45;;;;;;;30.97;27.77;;;18.70;99.90;;;;;;4986286;28;20803;-68
2021/09/10 07:43:13;;;;;;;32.00;26.90;;;18.70;99.90;;;;;;4987492;28;20239;-67
2021/09/10 07:45:41;;;;;;;29.57;25.77;;;18.60;99.90;;;;;;4978872;28;20767;-67
2021/09/10 07:48:11;;;;;;;29.10;24.93;;;18.60;99.90;;;;;;4980716;28;20240;-67
2021/09/10 07:50:39;;;;;;;27.43;23.57;;;18.60;99.90;;;;;;4980888;28;20616;-68
2021/09/10 07:53:07;;;;;;;29.97;25.77;;;18.60;99.90;;;;;;4988049;28;20251;-68
2021/09/10 07:55:37;;;;;;;30.30;25.53;;;18.60;99.90;;;;;;4984045;28;20268;-68
2021/09/10 07:58:05;;;;;;;30.40;26.47;;;18.60;99.90;;;;;;4991731;28;20244;-67
2021/09/10 08:00:34;;;;;;;31.37;27.97;;;18.60;99.90;;;;;;4984664;28;20255;-67
2021/09/10 08:03:02;;;;;;;33.97;29.40;;;18.60;99.90;;;;;;4994427;28;20240;-67
2021/09/10 08:05:32;;;;;;;34.80;30.20;;;18.60;99.90;;;;;;4980551;28;20269;-67
2021/09/10 08:08:00;;;;;;;33.27;27.83;;;18.60;99.90;;;;;;4982802;28;20745;-67
2021/09/10 08:10:29;;;;;;;33.73;29.37;;;18.50;99.90;;;;;;4978071;28;20249;-67
2021/09/10 08:12:57;;;;;;;33.03;28.83;;;18.50;99.90;;;;;;4979826;28;20267;-67
2021/09/10 08:15:25;;;;;;;31.10;27.20;;;18.50;99.90;;;;;;4990232;28;20294;-67
2021/09/10 08:17:53;;;;;;;28.10;24.17;;;18.50;99.90;;;;;;4981336;28;20236;-67
2021/09/10 08:20:27;;;;;;;30.13;24.60;;;18.40;99.90;;;;;;4998836;28;20243;-67
2021/09/10 08:22:56;;;;;;;23.60;20.20;;;18.40;99.90;;;;;;4989148;28;20236;-67
2021/09/10 08:25:24;;;;;;;22.30;18.77;;;18.40;99.90;;;;;;4988232;28;20236;-68
2021/09/10 08:27:52;;;;;;;21.80;17.73;;;18.40;99.90;;;;;;4995453;28;20777;-67
2021/09/10 08:30:21;;;;;;;20.30;17.43;;;18.40;99.90;;;;;;4987880;28;20724;-67
2021/09/10 08:32:49;;;;;;;18.40;16.40;;;18.40;99.90;;;;;;4996368;28;20236;-68
2021/09/10 08:35:17;;;;;;;18.60;16.23;;;18.40;99.90;;;;;;4986352;28;20239;-67
2021/09/10 08:37:45;;;;;;;18.80;16.80;;;18.40;99.90;;;;;;5000009;28;20239;-68
2021/09/10 08:40:15;;;;;;;19.70;16.37;;;18.40;99.90;;;;;;4988424;28;20243;-68
2021/09/10 08:42:45;;;;;;;19.83;15.37;;;18.30;99.90;;;;;;4990703;28;20247;-67
2021/09/10 08:45:17;;;;;;;16.80;15.00;;;18.30;99.90;;;;;;4985888;28;20334;-67
2021/09/10 08:47:46;;;;;;;15.50;13.13;;;18.30;99.90;;;;;;4988212;28;20266;-67
2021/09/10 08:50:14;;;;;;;12.93;11.20;;;18.30;99.90;;;;;;4986425;28;20236;-67
2021/09/10 08:52:42;;;;;;;12.67;11.37;;;18.30;99.90;;;;;;4985809;28;20270;-68
2021/09/10 08:55:11;;;;;;;11.70;10.53;;;18.30;99.90;;;;;;4986999;28;20765;-67
2021/09/10 08:57:47;;;;;;;9.97;8.97;;;18.40;99.90;;;;;;4989473;28;20255;-67
2021/09/10 09:00:16;;;;;;;9.57;8.60;;;18.30;99.90;;;;;;4985251;28;20244;-67
2021/09/10 09:02:58;;;;;;;9.40;8.37;;;18.30;99.90;;;;;;4984697;28;20248;-67
2021/09/10 09:05:27;;;;;;;10.77;9.67;;;18.30;99.90;;;;;;4983211;28;20241;-67
2021/09/10 09:08:06;;;;;;;11.83;10.63;;;18.30;99.90;;;;;;4982434;28;20260;-68
2021/09/10 09:10:57;;;;;;;11.30;9.57;;;18.30;99.90;;;;;;4990305;28;20251;-68
2021/09/10 09:13:31;;;;;;;11.97;10.67;;;18.30;99.90;;;;;;4984145;28;20244;-67
2021/09/10 09:16:17;;;;;;;11.23;9.77;;;18.30;99.90;;;;;;4993866;28;20634;-67
2021/09/10 09:18:46;;;;;;;11.10;10.00;;;18.30;99.90;;;;;;4987163;28;20239;-67
2021/09/10 09:21:15;;;;;;;10.97;9.77;;;18.30;99.90;;;;;;4982319;28;20330;-67
2021/09/10 09:23:43;;;;;;;11.37;9.70;;;18.20;99.90;;;;;;4981471;28;20236;-67
2021/09/10 09:26:15;;;;;;;9.97;8.97;;;18.20;99.90;;;;;;4984168;28;20736;-67
2021/09/10 09:28:46;;;;;;;10.20;8.90;;;18.20;99.90;;;;;;4982218;28;20296;-68
2021/09/10 09:31:20;;;;;;;10.07;8.57;;;18.30;99.90;;;;;;4983968;28;20287;-67
2021/09/10 09:33:51;;;;;;;10.33;9.10;;;18.30;99.90;;;;;;4984898;28;20352;-67
2021/09/10 09:36:19;;;;;;;9.20;7.57;;;18.30;99.90;;;;;;4982374;28;20592;-67
2021/09/10 09:38:47;;;;;;;9.17;8.13;;;18.30;99.90;;;;;;4979742;28;20247;-67
2021/09/10 09:41:17;;;;;;;8.77;7.60;;;18.30;99.90;;;;;;4987266;28;20583;-67
2021/09/10 09:43:50;;;;;;;9.37;7.70;;;18.30;99.90;;;;;;4985865;28;20238;-68
2021/09/10 09:46:19;;;;;;;8.77;7.33;;;18.30;99.90;;;;;;4986593;28;20267;-68
2021/09/10 09:48:49;;;;;;;9.80;7.57;;;18.30;99.90;;;;;;4988699;28;20252;-68
2021/09/10 09:51:21;;;;;;;;;;;18.20;99.90;;;;;;3615097;28;10021772;-68
2021/09/10 09:53:49;;;;;;;7.57;6.57;;;18.20;99.90;;;;;;2410934;28;10002177;-68
2021/09/10 09:56:17;;;;;;;7.47;6.07;;;18.30;99.90;;;;;;4995491;28;20475;-67
2021/09/10 09:58:47;;;;;;;7.63;6.40;;;18.30;99.90;;;;;;5007499;28;20246;-68
2021/09/10 10:01:17;;;;;;;7.23;6.47;;;18.30;99.90;;;;;;5007398;28;20234;-68
2021/09/10 10:03:46;;;;;;;6.77;6.07;;;18.40;99.90;;;;;;5007412;28;20248;-67
2021/09/10 10:06:21;;;;;;;7.07;5.77;;;18.30;99.90;;;;;;5011351;28;20238;-68
2021/09/10 10:08:55;;;;;;;6.83;5.63;;;18.40;99.90;;;;;;5012220;28;20229;-68
2021/09/10 10:11:25;;;;;;;7.13;6.23;;;18.40;99.90;;;;;;5003460;28;20239;-68
2021/09/10 10:13:59;;;;;;;5.53;5.03;;;18.40;99.90;;;;;;5005669;28;20254;-68
2021/09/10 10:16:37;;;;;;;7.73;7.00;;;18.40;99.90;;;;;;5008934;28;20274;-68
2021/09/10 10:19:06;;;;;;;9.13;8.00;;;18.50;99.90;;;;;;5006999;28;20243;-68
2021/09/10 10:21:54;;;;;;;11.07;9.97;;;18.50;99.90;;;;;;5008312;28;20244;-68
2021/09/10 10:24:39;;;;;;;10.37;9.27;;;18.60;99.90;;;;;;5005603;28;20586;-68
2021/09/10 10:27:28;;;;;;;11.80;10.70;;;18.60;99.90;;;;;;5007368;28;20254;-68
2021/09/10 10:29:56;;;;;;;11.43;9.70;;;18.70;99.90;;;;;;5010370;28;20309;-68
2021/09/10 10:32:37;;;;;;;9.47;8.47;;;18.80;99.90;;;;;;5003955;28;20239;-68
2021/09/10 10:35:21;;;;;;;11.33;10.23;;;18.80;99.90;;;;;;5014298;28;20259;-68
2021/09/10 10:37:51;;;;;;;10.97;9.50;;;18.80;99.90;;;;;;5012839;28;20243;-68
2021/09/10 10:40:32;;;;;;;10.90;9.80;;;18.80;99.90;;;;;;5000901;28;20239;-68
2021/09/10 10:43:08;;;;;;;12.80;11.47;;;18.90;99.90;;;;;;5002850;28;20244;-68
2021/09/10 10:46:05;;;;;;;11.67;10.47;;;19.10;99.90;;;;;;5003578;28;20438;-68
2021/09/10 10:48:49;;;;;;;12.43;11.23;;;19.10;99.90;;;;;;5000522;28;20588;-68
2021/09/10 10:51:43;;;;;;;15.63;13.30;;;19.20;99.90;;;;;;5013814;28;20319;-68
2021/09/10 10:54:13;;;;;;;16.03;13.50;;;19.20;99.90;;;;;;5001591;28;20248;-67
2021/09/10 10:56:45;;;;;;;14.87;13.37;;;19.40;99.90;;;;;;4998633;28;20739;-67
2021/09/10 10:59:33;;;;;;;14.87;13.33;;;19.40;99.90;;;;;;5002142;28;20244;-68
2021/09/10 11:02:25;;;;;;;13.00;11.00;;;19.50;99.90;;;;;;5005039;28;20744;-68
2021/09/10 11:05:00;;;;;;;19.47;17.53;;;19.50;99.90;;;;;;5002672;28;20657;-68
2021/09/10 11:07:30;;;;;;;18.33;16.47;;;19.50;99.90;;;;;;5005101;28;20908;-68
2021/09/10 11:10:00;;;;;;;17.23;15.43;;;19.70;99.90;;;;;;5004992;28;20244;-68
2021/09/10 11:12:29;;;;;;;16.77;13.93;;;19.90;99.90;;;;;;5008015;28;20280;-67
2021/09/10 11:14:57;;;;;;;18.63;15.77;;;20.00;99.90;;;;;;5001256;28;20243;-68
2021/09/10 11:17:29;;;;;;;16.73;15.03;;;20.10;99.90;;;;;;5000813;28;20739;-68
2021/09/10 11:19:59;;;;;;;18.83;16.87;;;20.10;99.90;;;;;;5008772;28;20248;-68
2021/09/10 11:22:27;;;;;;;17.43;15.63;;;20.20;99.90;;;;;;5006409;28;20637;-68
2021/09/10 11:25:06;;;;;;;17.37;15.67;;;20.20;99.90;;;;;;5012021;28;20250;-68
2021/09/10 11:27:38;;;;;;;16.20;14.67;;;20.20;99.90;;;;;;5006694;28;20244;-68
2021/09/10 11:30:08;;;;;;;17.43;15.73;;;20.20;99.90;;;;;;5002938;28;20330;-68
2021/09/10 11:32:37;;;;;;;16.90;15.27;;;20.30;99.90;;;;;;5005185;28;20297;-68
2021/09/10 11:35:19;;;;;;;16.87;15.17;;;20.30;99.90;;;;;;5002613;28;20310;-68
2021/09/10 11:37:55;;;;;;;16.60;14.90;;;20.40;99.90;;;;;;5000334;28;20681;-68
2021/09/10 11:40:36;;;;;;;16.47;14.77;;;20.40;99.90;;;;;;5007184;28;20652;-67
2021/09/10 11:43:07;;;;;;;16.60;15.00;;;20.50;99.90;;;;;;5005121;28;20303;-68
2021/09/10 11:45:39;;;;;;;16.23;14.53;;;20.60;99.90;;;;;;5003779;28;20236;-69
2021/09/10 11:48:09;;;;;;;15.53;13.93;;;20.60;99.90;;;;;;5003343;28;20348;-68
2021/09/10 11:50:55;;;;;;;16.83;15.13;;;20.60;99.90;;;;;;5008208;28;20263;-68
2021/09/10 11:53:27;;;;;;;15.57;13.97;;;20.60;99.90;;;;;;5002497;28;20244;-68
2021/09/10 11:56:02;;;;;;;15.60;14.17;;;20.70;99.90;;;;;;5002496;28;20245;-69
2021/09/10 11:58:36;;;;;;;15.53;14.03;;;20.90;99.90;;;;;;5003518;28;20247;-68
2021/09/10 12:01:19;;;;;;;14.63;13.33;;;21.00;99.90;;;;;;5005233;28;20240;-69
2021/09/10 12:03:52;;;;;;;16.10;14.60;;;21.20;99.90;;;;;;4999907;28;20719;-69
2021/09/10 12:06:24;;;;;;;13.83;12.47;;;21.30;99.90;;;;;;4997437;28;20268;-68
2021/09/10 12:09:12;;;;;;;15.53;14.00;;;21.40;99.90;;;;;;5001896;28;20244;-68
2021/09/10 12:12:07;;;;;;;13.77;12.50;;;21.50;99.90;;;;;;5004352;28;20252;-68
2021/09/10 12:14:38;;;;;;;14.00;12.70;;;21.60;99.90;;;;;;5008460;28;20255;-69
2021/09/10 12:17:09;;;;;;;14.70;13.30;;;21.80;99.90;;;;;;5004824;28;20249;-69
2021/09/10 12:19:53;;;;;;;13.80;12.50;;;21.90;99.90;;;;;;5002809;28;20233;-70
2021/09/10 12:22:39;;;;;;;13.07;11.90;;;22.10;99.90;;;;;;4995477;28;20240;-69
2021/09/10 12:25:28;;;;;;;11.93;10.90;;;22.20;99.90;;;;;;5011979;28;20236;-69
2021/09/10 12:28:11;;;;;;;13.50;11.73;;;22.30;99.90;;;;;;5002898;28;20634;-69
2021/09/10 12:30:42;;;;;;;13.07;11.87;;;22.50;99.90;;;;;;5000143;28;20240;-68
2021/09/10 12:33:14;;;;;;;12.67;11.47;;;22.60;99.90;;;;;;4996751;28;20767;-69
2021/09/10 12:35:43;;;;;;;14.47;13.07;;;22.60;99.90;;;;;;4993722;28;20754;-69
2021/09/10 12:38:14;;;;;;;13.23;12.10;;;22.70;99.90;;;;;;5000130;28;20241;-69
2021/09/10 12:40:47;;;;;;;13.10;11.90;;;22.60;99.90;;;;;;5001949;28;20304;-70
2021/09/10 12:43:17;;;;;;;12.03;10.93;;;22.70;99.90;;;;;;5014101;28;20795;-69
2021/09/10 12:45:47;;;;;;;13.77;12.57;;;22.90;99.90;;;;;;5011500;28;21005;-69